Time;durP1;ratioP1;P1;durP2;ratioP2;P2;SDS_P1;SDS_P2;PMS_P1;PMS_P2;Temp;Humidity;BMP_temperature;BMP_pressure;BME280_temperature;BME280_humidity;BME280_pressure;Samples;Min_cycle;Max_cycle;Signal;HPM_P1;HPM_P2
2023/02/21 02:13:53;;;;;;;2.77;1.40;;;8.60;99.90;;;;;;5033709;28;20844;-50
2023/02/21 02:16:29;;;;;;;2.33;0.80;;;8.60;99.90;;;;;;5057123;28;20199;-57
2023/02/21 02:19:36;;;;;;;1.00;0.73;;;8.60;99.90;;;;;;5048251;28;20218;-50
2023/02/21 02:22:22;;;;;;;2.43;1.00;;;8.60;99.90;;;;;;5044907;28;20205;-55
2023/02/21 02:25:03;;;;;;;1.43;0.90;;;8.60;99.90;;;;;;5058640;28;20290;-51
2023/02/21 02:28:04;;;;;;;3.10;1.20;;;8.60;99.90;;;;;;5061449;28;20226;-53
2023/02/21 02:30:51;;;;;;;1.43;0.87;;;8.60;99.90;;;;;;5023011;28;20235;-52
2023/02/21 02:33:39;;;;;;;1.33;1.00;;;8.60;99.90;;;;;;5048474;28;20195;-55
2023/02/21 02:36:13;;;;;;;2.40;1.10;;;8.60;99.90;;;;;;5041509;28;20203;-55
2023/02/21 02:38:51;;;;;;;1.47;0.70;;;8.60;99.90;;;;;;5042880;28;20862;-50
2023/02/21 02:41:25;;;;;;;1.93;0.97;;;8.50;99.90;;;;;;5042112;28;20298;-55
2023/02/21 02:43:56;;;;;;;0.93;0.77;;;8.60;99.90;;;;;;5044885;28;20654;-52
2023/02/21 02:46:26;;;;;;;1.30;0.83;;;8.60;99.90;;;;;;5032818;28;20839;-49
2023/02/21 02:48:58;;;;;;;2.10;1.20;;;8.50;99.90;;;;;;5054046;28;20219;-53
2023/02/21 02:51:27;;;;;;;1.10;1.00;;;8.50;99.90;;;;;;5040458;28;20194;-50
2023/02/21 02:53:57;;;;;;;1.57;1.47;;;8.50;99.90;;;;;;5050465;28;20199;-49
2023/02/21 02:56:25;;;;;;;2.80;1.53;;;8.50;99.90;;;;;;5039750;28;20296;-49
2023/02/21 02:58:55;;;;;;;3.60;1.20;;;8.50;99.90;;;;;;5043705;28;20230;-49
2023/02/21 03:01:56;;;;;;;2.97;1.30;;;8.50;99.90;;;;;;5028136;28;20341;-54
2023/02/21 03:04:59;;;;;;;2.40;1.70;;;8.50;99.90;;;;;;5048920;28;20202;-54
2023/02/21 03:07:40;;;;;;;1.70;1.60;;;8.40;99.90;;;;;;5044246;28;20206;-54
2023/02/21 03:10:18;;;;;;;1.60;1.50;;;8.40;99.90;;;;;;5047972;28;20729;-56
2023/02/21 03:12:51;;;;;;;2.13;1.40;;;8.40;99.90;;;;;;5042578;28;20263;-49
2023/02/21 03:15:21;;;;;;;2.70;1.73;;;8.40;99.90;;;;;;5041034;28;20215;-56
2023/02/21 03:17:56;;;;;;;1.73;0.97;;;8.40;99.90;;;;;;5036614;28;20203;-51
2023/02/21 03:20:24;;;;;;;3.60;2.10;;;8.30;99.90;;;;;;5050867;28;20220;-54
2023/02/21 03:23:15;;;;;;;2.57;1.43;;;8.30;99.90;;;;;;5049565;28;20209;-57
2023/02/21 03:25:46;;;;;;;3.07;1.63;;;8.30;99.90;;;;;;5049797;28;20294;-49
2023/02/21 03:28:14;;;;;;;3.40;2.23;;;8.20;99.90;;;;;;5040641;28;20337;-57
2023/02/21 03:30:45;;;;;;;4.17;2.00;;;8.20;99.90;;;;;;5046162;28;20230;-53
2023/02/21 03:33:11;;;;;;;4.03;2.70;;;8.20;99.90;;;;;;5041969;28;20596;-56
2023/02/21 03:35:38;;;;;;;3.07;2.50;;;8.20;99.90;;;;;;5048432;28;20423;-54
2023/02/21 03:38:06;;;;;;;3.20;2.53;;;8.10;99.90;;;;;;5061315;28;20639;-58
2023/02/21 03:40:34;;;;;;;2.57;2.07;;;8.20;99.90;;;;;;5059221;28;20230;-50
2023/02/21 03:43:06;;;;;;;4.93;3.03;;;8.20;99.90;;;;;;5050662;28;20214;-55
2023/02/21 03:45:38;;;;;;;7.07;2.40;;;8.10;99.90;;;;;;5041096;28;20224;-50
2023/02/21 03:48:12;;;;;;;3.30;1.73;;;8.10;99.90;;;;;;5039741;28;20215;-56
2023/02/21 03:50:57;;;;;;;4.10;1.37;;;8.10;99.90;;;;;;5053746;28;20226;-50
2023/02/21 03:53:28;;;;;;;4.27;1.80;;;8.00;99.90;;;;;;5043138;28;20215;-50
2023/02/21 03:55:56;;;;;;;4.97;1.83;;;8.00;99.90;;;;;;5042873;28;20984;-49
2023/02/21 03:58:32;;;;;;;5.87;2.07;;;8.00;99.90;;;;;;5039793;28;20222;-48
2023/02/21 04:00:59;;;;;;;5.17;2.73;;;8.00;99.90;;;;;;5041448;28;20199;-48
2023/02/21 04:03:26;;;;;;;6.10;3.03;;;8.00;99.90;;;;;;5027051;28;20207;-53
2023/02/21 04:05:57;;;;;;;6.23;3.47;;;8.00;99.90;;;;;;5047958;28;20211;-52
2023/02/21 04:08:24;;;;;;;7.60;3.10;;;8.00;99.90;;;;;;5040530;28;20218;-49
2023/02/21 04:10:52;;;;;;;5.63;3.30;;;8.00;99.90;;;;;;5042660;28;20290;-50
2023/02/21 04:13:23;;;;;;;6.80;3.33;;;8.00;99.90;;;;;;5038573;28;20195;-51
2023/02/21 04:15:50;;;;;;;6.57;4.03;;;8.00;99.90;;;;;;5042578;28;20195;-49
2023/02/21 04:18:17;;;;;;;5.03;3.60;;;8.00;99.90;;;;;;5038578;28;20280;-51
2023/02/21 04:20:46;;;;;;;8.90;3.90;;;8.00;99.90;;;;;;5032434;28;20239;-48
2023/02/21 04:23:18;;;;;;;4.33;2.90;;;8.00;99.90;;;;;;5044081;28;20196;-52
2023/02/21 04:25:45;;;;;;;7.57;2.80;;;7.90;99.90;;;;;;5044798;28;20286;-49
2023/02/21 04:28:16;;;;;;;8.50;3.10;;;7.90;99.90;;;;;;5038490;28;20296;-52
2023/02/21 04:30:44;;;;;;;5.00;3.10;;;7.90;99.90;;;;;;5046249;28;20223;-51
2023/02/21 04:33:11;;;;;;;5.47;3.00;;;7.90;99.90;;;;;;5042370;28;20689;-55
2023/02/21 04:35:38;;;;;;;7.73;2.50;;;7.90;99.90;;;;;;5037469;28;20217;-53
2023/02/21 04:38:13;;;;;;;8.93;3.23;;;7.90;99.90;;;;;;5044560;28;20203;-50
2023/02/21 04:40:40;;;;;;;10.27;2.50;;;7.90;99.90;;;;;;5046258;28;20246;-53
2023/02/21 04:43:07;;;;;;;7.07;2.50;;;7.90;99.90;;;;;;5044547;28;20289;-56
2023/02/21 04:45:34;;;;;;;10.77;3.33;;;7.90;99.90;;;;;;5045732;28;20820;-53
2023/02/21 04:48:02;;;;;;;4.27;2.50;;;7.80;99.90;;;;;;5052073;28;20533;-54
2023/02/21 04:50:29;;;;;;;7.17;3.37;;;7.80;99.90;;;;;;5045234;28;20269;-49
2023/02/21 04:52:56;;;;;;;6.77;2.80;;;7.90;99.90;;;;;;5036716;28;20579;-55
2023/02/21 04:55:22;;;;;;;7.33;2.70;;;7.80;99.90;;;;;;5051804;28;20183;-54
2023/02/21 04:57:49;;;;;;;7.07;2.47;;;7.80;99.90;;;;;;5047063;28;20230;-48
2023/02/21 05:00:16;;;;;;;9.73;3.37;;;7.80;99.90;;;;;;5055919;28;20234;-54
2023/02/21 05:02:44;;;;;;;12.47;3.10;;;7.80;99.90;;;;;;5046929;28;20282;-52
2023/02/21 05:05:12;;;;;;;11.50;2.53;;;7.70;99.90;;;;;;5042791;28;20212;-55
2023/02/21 05:07:41;;;;;;;9.07;3.17;;;7.70;99.90;;;;;;5031195;28;20214;-52
2023/02/21 05:10:09;;;;;;;7.43;2.60;;;7.70;99.90;;;;;;5047516;28;20223;-54
2023/02/21 05:12:38;;;;;;;10.50;2.37;;;7.60;99.90;;;;;;5046590;28;20195;-50
2023/02/21 05:15:07;;;;;;;8.70;2.50;;;7.60;99.90;;;;;;5043980;28;20235;-55
2023/02/21 05:17:33;;;;;;;7.20;2.13;;;7.60;99.90;;;;;;5045976;28;20210;-52
2023/02/21 05:20:00;;;;;;;12.13;3.13;;;7.60;99.90;;;;;;5045076;28;20223;-54
2023/02/21 05:22:28;;;;;;;12.27;2.93;;;7.60;99.90;;;;;;5040018;28;20337;-53
2023/02/21 05:24:55;;;;;;;14.10;2.70;;;7.60;99.90;;;;;;5052882;28;20203;-54
2023/02/21 05:27:22;;;;;;;12.93;3.23;;;7.50;99.90;;;;;;5047029;28;20192;-51
2023/02/21 05:29:50;;;;;;;10.37;2.73;;;7.60;99.90;;;;;;5046680;28;20308;-50
2023/02/21 05:32:18;;;;;;;14.67;2.70;;;7.60;99.90;;;;;;5042464;28;20202;-50
2023/02/21 05:34:46;;;;;;;12.30;3.13;;;7.50;99.90;;;;;;5046328;28;20567;-50
2023/02/21 05:37:13;;;;;;;12.43;2.63;;;7.50;99.90;;;;;;5042302;28;20286;-49
2023/02/21 05:40:04;;;;;;;10.30;2.60;;;7.50;99.90;;;;;;5051280;28;20230;-47
2023/02/21 05:42:31;;;;;;;17.70;3.07;;;7.50;99.90;;;;;;5041453;28;20518;-55
2023/02/21 05:44:58;;;;;;;16.67;2.63;;;7.50;99.90;;;;;;5047873;28;20195;-51
2023/02/21 05:47:25;;;;;;;15.53;2.73;;;7.50;99.90;;;;;;5049321;28;20211;-56
2023/02/21 05:49:52;;;;;;;12.37;3.13;;;7.50;99.90;;;;;;5059353;28;20339;-49
2023/02/21 05:52:41;;;;;;;15.87;3.03;;;7.50;99.90;;;;;;5050792;28;20214;-50
2023/02/21 05:55:11;;;;;;;16.77;3.00;;;7.50;99.90;;;;;;5036545;28;20210;-50
2023/02/21 05:57:38;;;;;;;13.70;3.77;;;7.50;99.90;;;;;;5044579;28;20203;-57
2023/02/21 06:00:06;;;;;;;11.73;2.93;;;7.50;99.90;;;;;;5051935;28;20584;-50
2023/02/21 06:02:38;;;;;;;16.77;3.67;;;7.50;99.90;;;;;;5049139;28;20207;-56
2023/02/21 06:05:06;;;;;;;14.80;2.60;;;7.50;99.90;;;;;;5057572;28;20206;-50
2023/02/21 06:07:35;;;;;;;16.80;2.70;;;7.50;99.90;;;;;;5050883;28;20209;-56
2023/02/21 06:10:02;;;;;;;10.70;2.60;;;7.50;99.90;;;;;;5045140;28;20226;-50
2023/02/21 06:12:30;;;;;;;18.70;2.67;;;7.50;99.90;;;;;;5051184;28;20204;-56
2023/02/21 06:14:57;;;;;;;18.13;3.57;;;7.50;99.90;;;;;;5044430;28;20906;-49
2023/02/21 06:17:24;;;;;;;14.90;2.97;;;7.50;99.90;;;;;;5049918;28;20194;-58
2023/02/21 06:19:51;;;;;;;10.80;2.77;;;7.50;99.90;;;;;;5045374;28;20226;-49
2023/02/21 06:22:22;;;;;;;12.73;2.93;;;7.50;99.90;;;;;;5054937;28;20755;-57
2023/02/21 06:24:49;;;;;;;19.87;3.47;;;7.50;99.90;;;;;;5040925;28;20221;-49
2023/02/21 06:27:16;;;;;;;15.40;3.40;;;7.40;99.90;;;;;;5046726;28;20528;-48
2023/02/21 06:29:44;;;;;;;14.27;2.80;;;7.50;99.90;;;;;;5040957;28;20933;-52
2023/02/21 06:32:11;;;;;;;16.03;2.83;;;7.40;99.90;;;;;;5043602;28;20210;-50
2023/02/21 06:34:59;;;;;;;21.53;3.13;;;7.40;99.90;;;;;;5049430;28;20294;-51
2023/02/21 06:37:27;;;;;;;20.10;2.77;;;7.40;99.90;;;;;;5051157;28;20657;-54
2023/02/21 06:39:54;;;;;;;20.30;3.20;;;7.40;99.90;;;;;;5042081;28;20456;-49
2023/02/21 06:42:22;;;;;;;9.70;2.97;;;7.40;99.90;;;;;;5053478;28;20207;-57
2023/02/21 06:44:51;;;;;;;14.70;2.80;;;7.40;99.90;;;;;;5041558;28;20204;-49
2023/02/21 06:47:18;;;;;;;13.00;2.60;;;7.40;99.90;;;;;;5047563;28;20211;-52
2023/02/21 06:49:46;;;;;;;19.30;3.47;;;7.40;99.90;;;;;;5048614;28;20222;-50
2023/02/21 06:52:12;;;;;;;17.63;3.00;;;7.30;99.90;;;;;;5049403;28;20210;-51
2023/02/21 06:54:41;;;;;;;16.57;3.03;;;7.30;99.90;;;;;;5041390;28;20195;-48
2023/02/21 06:57:26;;;;;;;21.70;3.97;;;7.30;99.90;;;;;;5034836;28;20218;-53
2023/02/21 06:59:54;;;;;;;16.20;3.33;;;7.30;99.90;;;;;;5049564;28;20272;-50
2023/02/21 07:02:22;;;;;;;15.07;3.23;;;7.30;99.90;;;;;;5042083;28;20203;-56
2023/02/21 07:04:49;;;;;;;15.90;3.30;;;7.30;99.90;;;;;;5041735;28;20213;-49
2023/02/21 07:07:15;;;;;;;19.13;3.30;;;7.30;99.90;;;;;;5054684;28;20732;-53
2023/02/21 07:09:43;;;;;;;19.13;3.13;;;7.30;99.90;;;;;;5048638;28;20301;-51
2023/02/21 07:12:11;;;;;;;22.80;4.00;;;7.30;99.90;;;;;;5039828;28;20205;-51
2023/02/21 07:14:37;;;;;;;21.53;3.53;;;7.40;99.90;;;;;;5046698;28;20281;-55
2023/02/21 07:17:06;;;;;;;14.00;3.83;;;7.30;99.90;;;;;;5041680;28;20637;-48
2023/02/21 07:19:55;;;;;;;19.20;4.10;;;7.30;99.90;;;;;;5038428;28;20646;-49
2023/02/21 07:22:25;;;;;;;16.07;3.40;;;7.40;99.90;;;;;;5053775;28;20198;-49
2023/02/21 07:24:52;;;;;;;23.17;3.13;;;7.40;99.90;;;;;;5047855;28;20227;-50
2023/02/21 07:27:19;;;;;;;16.73;2.97;;;7.40;99.90;;;;;;5036605;28;20206;-55
2023/02/21 07:29:47;;;;;;;15.07;3.03;;;7.40;99.90;;;;;;5047090;28;20320;-50
2023/02/21 07:32:17;;;;;;;15.07;2.87;;;7.40;99.90;;;;;;5047038;28;20606;-52
2023/02/21 07:34:45;;;;;;;16.00;3.20;;;7.50;99.90;;;;;;5043526;28;20199;-49
2023/02/21 07:37:12;;;;;;;18.77;3.77;;;7.50;99.90;;;;;;5041214;28;20654;-54
2023/02/21 07:39:40;;;;;;;14.80;2.67;;;7.50;99.90;;;;;;5042762;28;20226;-52
2023/02/21 07:42:07;;;;;;;19.83;3.73;;;7.50;99.90;;;;;;5042583;28;20215;-55
2023/02/21 07:44:38;;;;;;;15.50;3.43;;;7.50;99.90;;;;;;5039339;28;20677;-52
2023/02/21 07:47:05;;;;;;;13.87;3.00;;;7.60;99.90;;;;;;5051079;28;20203;-55
2023/02/21 07:49:37;;;;;;;18.60;4.00;;;7.60;99.90;;;;;;5040861;28;20911;-49
2023/02/21 07:52:04;;;;;;;13.00;3.50;;;7.60;99.90;;;;;;5043800;28;20579;-55
2023/02/21 07:54:32;;;;;;;16.50;2.70;;;7.60;99.90;;;;;;5039232;28;20199;-51
2023/02/21 07:56:59;;;;;;;22.97;3.70;;;7.70;99.90;;;;;;5043400;28;20207;-52
2023/02/21 07:59:25;;;;;;;15.37;3.70;;;7.70;99.90;;;;;;5040118;28;20222;-52
2023/02/21 08:01:52;;;;;;;19.57;3.17;;;7.80;99.90;;;;;;5045533;28;20222;-54
2023/02/21 08:04:20;;;;;;;13.03;3.03;;;7.80;99.90;;;;;;5053794;28;20198;-52
2023/02/21 08:06:48;;;;;;;11.80;3.00;;;7.90;99.90;;;;;;5047932;28;20221;-53
2023/02/21 08:09:15;;;;;;;10.70;3.27;;;7.90;99.90;;;;;;5045994;28;20211;-51
2023/02/21 08:11:43;;;;;;;17.13;3.33;;;8.00;99.90;;;;;;5048813;28;20202;-49
2023/02/21 08:14:10;;;;;;;17.57;2.90;;;8.00;99.90;;;;;;5032464;28;20505;-56
2023/02/21 08:16:36;;;;;;;15.33;3.23;;;8.10;99.90;;;;;;5053006;28;20678;-50
2023/02/21 08:19:04;;;;;;;12.93;2.57;;;8.10;99.90;;;;;;5049184;28;20724;-55
2023/02/21 08:21:31;;;;;;;22.03;4.10;;;8.20;99.90;;;;;;5049613;28;20199;-57
2023/02/21 08:24:00;;;;;;;14.40;4.03;;;8.20;99.90;;;;;;5044726;28;20191;-55
2023/02/21 08:26:27;;;;;;;14.27;3.10;;;8.30;99.90;;;;;;5049708;28;20677;-56
2023/02/21 08:28:54;;;;;;;15.67;3.47;;;8.30;99.90;;;;;;5040211;28;20242;-50
2023/02/21 08:31:21;;;;;;;15.43;3.13;;;8.30;99.90;;;;;;5040689;28;20332;-57
2023/02/21 08:33:48;;;;;;;13.67;3.77;;;8.30;99.90;;;;;;5051247;28;20203;-51
2023/02/21 08:36:15;;;;;;;14.40;3.27;;;8.30;99.90;;;;;;5044666;28;20184;-58
2023/02/21 08:38:41;;;;;;;11.63;2.77;;;8.30;99.90;;;;;;5048541;28;20210;-49
2023/02/21 08:41:10;;;;;;;15.33;3.53;;;8.30;99.90;;;;;;5044527;28;20280;-55
2023/02/21 08:43:37;;;;;;;20.17;3.20;;;8.30;99.90;;;;;;5044464;28;20203;-52
2023/02/21 08:46:04;;;;;;;14.30;3.03;;;8.30;99.90;;;;;;5037450;28;20450;-58
2023/02/21 08:48:30;;;;;;;17.77;3.90;;;8.30;99.90;;;;;;5050697;28;20202;-56
2023/02/21 08:50:57;;;;;;;12.23;2.97;;;8.30;99.90;;;;;;5045227;28;20223;-52
2023/02/21 08:53:43;;;;;;;18.07;3.03;;;8.40;99.90;;;;;;5049083;28;20352;-50
2023/02/21 08:56:11;;;;;;;15.17;3.17;;;8.40;99.90;;;;;;5048556;28;20183;-55
2023/02/21 08:58:38;;;;;;;17.10;3.03;;;8.40;99.90;;;;;;5047171;28;20192;-50
2023/02/21 09:01:05;;;;;;;11.57;2.83;;;8.40;99.90;;;;;;5033201;28;21132;-55
2023/02/21 09:03:32;;;;;;;9.83;2.23;;;8.40;99.90;;;;;;5052635;28;20198;-55
2023/02/21 09:05:58;;;;;;;14.57;3.50;;;8.40;99.90;;;;;;5043304;28;20298;-53
2023/02/21 09:08:27;;;;;;;12.83;2.60;;;8.40;99.90;;;;;;5047065;28;20271;-56
2023/02/21 09:10:56;;;;;;;12.63;2.70;;;8.40;99.90;;;;;;5047169;28;20225;-50
2023/02/21 09:13:23;;;;;;;20.53;3.73;;;8.40;99.90;;;;;;5048140;28;20202;-56
2023/02/21 09:15:50;;;;;;;14.60;2.83;;;8.50;99.90;;;;;;5041024;28;20521;-52
2023/02/21 09:18:17;;;;;;;17.27;3.83;;;8.40;99.90;;;;;;5041549;28;20218;-53
2023/02/21 09:20:48;;;;;;;17.40;3.23;;;8.50;99.90;;;;;;5047626;28;20211;-53
2023/02/21 09:23:17;;;;;;;9.67;2.67;;;8.50;99.90;;;;;;5054959;28;20218;-53
2023/02/21 09:25:43;;;;;;;10.63;2.60;;;8.50;99.90;;;;;;5053775;28;20657;-50
2023/02/21 09:28:10;;;;;;;16.27;3.53;;;8.50;99.90;;;;;;5052201;28;20950;-54
2023/02/21 09:30:38;;;;;;;14.67;3.27;;;8.50;99.90;;;;;;5048324;28;20223;-49
2023/02/21 09:33:05;;;;;;;10.07;3.57;;;8.50;99.90;;;;;;5042687;28;21168;-54
2023/02/21 09:35:32;;;;;;;12.40;2.40;;;8.50;99.90;;;;;;5056366;28;20727;-57
2023/02/21 09:38:00;;;;;;;9.37;2.80;;;8.50;99.90;;;;;;5052911;28;20186;-56
2023/02/21 09:40:36;;;;;;;12.43;2.83;;;8.60;99.90;;;;;;5054544;28;20698;-57
2023/02/21 09:43:08;;;;;;;13.20;2.97;;;8.60;99.90;;;;;;5048114;28;20199;-57
2023/02/21 09:45:38;;;;;;;13.27;2.87;;;8.80;99.90;;;;;;5047664;28;20291;-55
2023/02/21 09:48:11;;;;;;;9.90;2.40;;;8.90;99.90;;;;;;5050149;28;20210;-55
2023/02/21 09:50:44;;;;;;;14.50;3.07;;;8.90;99.90;;;;;;5038703;28;20215;-49
2023/02/21 09:53:14;;;;;;;11.57;2.47;;;8.90;99.90;;;;;;5053036;28;20201;-53
2023/02/21 09:55:41;;;;;;;21.00;3.00;;;8.90;99.90;;;;;;5048804;28;20670;-51
2023/02/21 09:58:12;;;;;;;12.67;2.50;;;9.00;99.90;;;;;;5051940;28;20427;-56
2023/02/21 10:00:41;;;;;;;8.93;2.20;;;9.00;99.90;;;;;;5049902;28;20624;-51
2023/02/21 10:03:22;;;;;;;12.73;2.93;;;9.10;99.90;;;;;;5043629;28;20825;-54
2023/02/21 10:05:57;;;;;;;15.67;3.80;;;9.10;99.90;;;;;;5036772;28;20211;-51
2023/02/21 10:08:35;;;;;;;10.17;2.60;;;9.10;99.90;;;;;;5051559;28;20261;-57
2023/02/21 10:11:11;;;;;;;15.97;3.23;;;9.10;99.90;;;;;;5048972;28;20307;-56
2023/02/21 10:13:41;;;;;;;17.70;2.80;;;9.20;99.90;;;;;;5053345;28;20195;-53
2023/02/21 10:16:15;;;;;;;16.57;3.37;;;9.20;99.90;;;;;;5052519;28;20967;-57
2023/02/21 10:18:48;;;;;;;10.43;2.83;;;9.30;99.90;;;;;;5050645;28;20537;-51
2023/02/21 10:21:22;;;;;;;13.03;2.73;;;9.30;99.90;;;;;;5035037;28;20202;-55
2023/02/21 10:23:53;;;;;;;14.73;2.73;;;9.30;99.90;;;;;;5050361;28;20203;-51
2023/02/21 10:26:25;;;;;;;16.27;3.13;;;9.40;99.90;;;;;;5059519;28;20205;-55
2023/02/21 10:28:53;;;;;;;12.87;3.53;;;9.50;99.90;;;;;;5051932;28;20226;-50
2023/02/21 10:31:29;;;;;;;12.37;2.90;;;9.50;99.90;;;;;;5060555;28;20242;-55
2023/02/21 10:34:23;;;;;;;15.47;2.73;;;9.60;99.90;;;;;;5047607;28;20316;-58
2023/02/21 10:36:53;;;;;;;10.67;2.60;;;9.60;99.90;;;;;;5043337;28;20217;-49
2023/02/21 10:39:24;;;;;;;12.13;2.93;;;9.60;99.90;;;;;;5056556;28;20231;-51
2023/02/21 10:41:54;;;;;;;11.87;3.10;;;9.60;99.90;;;;;;5047288;28;20214;-51
2023/02/21 10:44:26;;;;;;;13.37;2.70;;;9.60;99.90;;;;;;5044661;28;20204;-58
2023/02/21 10:47:02;;;;;;;14.70;2.70;;;9.60;99.90;;;;;;5051516;28;20195;-49
2023/02/21 10:49:34;;;;;;;16.13;3.00;;;9.70;99.90;;;;;;5048435;28;20291;-57
2023/02/21 10:52:09;;;;;;;14.13;2.80;;;9.70;99.90;;;;;;5047550;28;20211;-54
2023/02/21 10:54:37;;;;;;;10.80;2.40;;;9.80;99.90;;;;;;5043708;28;20751;-54
2023/02/21 10:57:23;;;;;;;10.47;2.40;;;9.90;99.90;;;;;;5049902;28;20206;-53
2023/02/21 10:59:50;;;;;;;14.60;3.07;;;10.00;99.90;;;;;;5053662;28;20226;-51
2023/02/21 11:02:33;;;;;;;13.43;2.80;;;10.10;99.90;;;;;;5054076;28;20198;-54
2023/02/21 11:05:14;;;;;;;10.87;2.10;;;10.10;99.90;;;;;;5046693;28;20203;-56
2023/02/21 11:07:42;;;;;;;13.87;2.43;;;10.30;99.90;;;;;;5040242;28;20646;-48
2023/02/21 11:10:28;;;;;;;11.67;3.13;;;10.30;99.90;;;;;;5045184;28;20223;-54
2023/02/21 11:13:06;;;;;;;8.83;2.43;;;10.30;99.90;;;;;;5050639;28;20700;-50
2023/02/21 11:15:34;;;;;;;10.77;3.07;;;10.30;99.90;;;;;;5050552;28;20198;-56
2023/02/21 11:18:16;;;;;;;14.00;2.30;;;10.30;99.90;;;;;;5042863;28;20973;-57
2023/02/21 11:20:43;;;;;;;11.27;2.10;;;10.30;99.90;;;;;;5045506;28;20584;-50
2023/02/21 11:23:20;;;;;;;10.13;2.33;;;10.40;99.90;;;;;;5049718;28;20534;-57
2023/02/21 11:25:49;;;;;;;11.83;2.50;;;10.50;99.90;;;;;;5038469;28;20324;-53
2023/02/21 11:28:19;;;;;;;9.57;2.40;;;10.60;99.90;;;;;;5047081;28;20200;-57
2023/02/21 11:30:51;;;;;;;15.07;2.67;;;10.70;99.90;;;;;;5046948;28;20693;-50
2023/02/21 11:33:21;;;;;;;15.67;2.90;;;10.70;99.90;;;;;;5029780;28;20291;-51
2023/02/21 11:35:53;;;;;;;15.27;2.70;;;10.70;99.90;;;;;;5042815;28;20210;-56
2023/02/21 11:38:35;;;;;;;13.23;4.33;;;10.70;99.90;;;;;;5035702;28;20202;-50
2023/02/21 11:41:14;;;;;;;9.90;2.53;;;10.80;99.90;;;;;;5039960;28;20626;-56
2023/02/21 11:44:23;;;;;;;8.90;2.43;;;10.80;99.90;;;;;;5046087;28;20222;-53
2023/02/21 11:46:54;;;;;;;11.47;2.50;;;11.00;99.90;;;;;;5044083;28;20202;-53
2023/02/21 11:49:29;;;;;;;9.43;2.37;;;11.10;99.90;;;;;;5039929;28;20219;-52
2023/02/21 11:52:01;;;;;;;9.57;1.93;;;11.00;99.90;;;;;;5045958;28;20709;-52
2023/02/21 11:54:49;;;;;;;6.23;1.57;;;10.90;99.90;;;;;;5046584;28;20303;-57
2023/02/21 11:57:24;;;;;;;9.10;1.90;;;10.90;99.90;;;;;;5038507;28;20712;-51
2023/02/21 11:59:58;;;;;;;9.60;2.17;;;11.00;99.90;;;;;;5044320;28;20217;-53
2023/02/21 12:02:52;;;;;;;8.17;1.93;;;11.00;99.90;;;;;;5041571;28;20204;-55
2023/02/21 12:05:38;;;;;;;8.53;2.03;;;10.90;99.90;;;;;;5041532;28;20279;-50
2023/02/21 12:08:40;;;;;;;9.07;2.33;;;10.80;99.90;;;;;;5046878;28;20591;-50
2023/02/21 12:11:23;;;;;;;9.60;2.13;;;10.90;99.90;;;;;;5035839;28;20214;-52
2023/02/21 12:14:03;;;;;;;7.30;1.87;;;10.80;99.90;;;;;;5045869;28;20665;-56
2023/02/21 12:17:00;;;;;;;7.43;2.00;;;10.90;99.90;;;;;;5048855;28;20280;-52
2023/02/21 12:20:05;;;;;;;9.10;2.30;;;10.90;99.90;;;;;;5049964;28;20288;-57
2023/02/21 12:22:52;;;;;;;9.90;2.97;;;10.80;99.90;;;;;;5039768;28;20300;-54
2023/02/21 12:25:27;;;;;;;9.70;2.20;;;10.70;99.90;;;;;;5048541;28;20194;-48
2023/02/21 12:28:00;;;;;;;8.23;2.30;;;10.70;99.90;;;;;;5035029;28;20205;-52
2023/02/21 12:31:00;;;;;;;5.80;1.80;;;10.70;99.90;;;;;;5051874;28;20305;-53
2023/02/21 12:33:40;;;;;;;5.50;1.77;;;10.60;99.90;;;;;;5037368;28;20269;-54
2023/02/21 12:36:19;;;;;;;8.83;1.83;;;10.60;99.90;;;;;;5052447;28;20198;-50
2023/02/21 12:39:01;;;;;;;8.77;2.17;;;10.40;99.90;;;;;;5044770;28;20693;-56
2023/02/21 12:41:44;;;;;;;8.63;2.23;;;10.40;99.90;;;;;;5039024;28;20191;-55
2023/02/21 12:44:15;;;;;;;7.07;2.13;;;10.30;99.90;;;;;;5040967;28;20286;-52
2023/02/21 12:46:49;;;;;;;10.77;2.90;;;10.40;99.90;;;;;;5051789;28;20305;-53
2023/02/21 12:49:22;;;;;;;7.30;2.03;;;10.40;99.90;;;;;;5040336;28;20310;-51
2023/02/21 12:52:15;;;;;;;9.33;2.00;;;10.40;99.90;;;;;;5047316;28;20264;-52
2023/02/21 12:54:48;;;;;;;5.73;2.20;;;10.40;99.90;;;;;;5046309;28;20199;-57
2023/02/21 12:57:22;;;;;;;7.80;2.13;;;10.40;99.90;;;;;;5049903;28;20191;-51
2023/02/21 13:00:06;;;;;;;6.53;2.00;;;10.30;99.90;;;;;;5040138;28;20230;-57
2023/02/21 13:03:03;;;;;;;5.97;2.13;;;10.30;99.90;;;;;;5051425;28;20281;-53
2023/02/21 13:05:38;;;;;;;9.43;2.63;;;10.30;99.90;;;;;;5046033;28;20710;-54
2023/02/21 13:08:11;;;;;;;8.77;2.57;;;10.20;99.90;;;;;;5052370;28;20191;-52
2023/02/21 13:10:51;;;;;;;10.80;3.40;;;10.20;99.90;;;;;;5042892;28;20233;-54
2023/02/21 13:13:22;;;;;;;10.30;2.23;;;10.10;99.90;;;;;;5044223;28;20277;-52
2023/02/21 13:15:52;;;;;;;6.77;2.50;;;10.10;99.90;;;;;;5044470;28;20688;-53
2023/02/21 13:18:24;;;;;;;7.13;2.27;;;10.00;99.90;;;;;;5050045;28;20592;-52
2023/02/21 13:20:56;;;;;;;7.37;2.43;;;10.00;99.90;;;;;;5050638;28;20755;-54
2023/02/21 13:24:01;;;;;;;8.27;2.60;;;10.00;99.90;;;;;;5039366;28;20286;-54
2023/02/21 13:27:05;;;;;;;10.03;2.07;;;10.00;99.90;;;;;;5051286;28;20333;-54
2023/02/21 13:29:35;;;;;;;11.03;2.10;;;10.00;99.90;;;;;;5051178;28;20303;-54
2023/02/21 13:32:06;;;;;;;7.57;2.27;;;10.00;99.90;;;;;;5040532;28;20243;-57
2023/02/21 13:34:38;;;;;;;11.17;2.07;;;10.00;99.90;;;;;;5051420;28;20191;-57
2023/02/21 13:37:08;;;;;;;8.37;2.37;;;10.00;99.90;;;;;;5042339;28;20252;-53
2023/02/21 13:39:37;;;;;;;9.03;2.07;;;10.00;99.90;;;;;;5043606;28;20231;-55
2023/02/21 13:42:09;;;;;;;8.13;2.33;;;10.00;99.90;;;;;;5047021;28;20658;-52
2023/02/21 13:44:38;;;;;;;10.10;2.17;;;10.10;99.90;;;;;;5048735;28;20192;-55
2023/02/21 13:47:12;;;;;;;11.83;2.67;;;10.20;99.90;;;;;;5040149;28;20198;-51
2023/02/21 13:49:50;;;;;;;10.27;2.63;;;10.40;99.90;;;;;;5045553;28;20268;-57
2023/02/21 13:52:49;;;;;;;7.83;2.13;;;10.60;99.90;;;;;;5050928;28;20222;-51
2023/02/21 13:55:27;;;;;;;9.13;2.30;;;10.60;99.90;;;;;;5045693;28;20206;-52
2023/02/21 13:58:33;;;;;;;4.87;1.97;;;10.60;99.90;;;;;;5050590;28;20203;-52
2023/02/21 14:01:21;;;;;;;7.90;2.20;;;10.40;99.90;;;;;;5052821;28;20211;-52
2023/02/21 14:03:48;;;;;;;11.47;3.07;;;10.40;99.90;;;;;;5042018;28;20296;-54
2023/02/21 14:06:34;;;;;;;9.70;2.20;;;10.20;99.90;;;;;;5052475;28;20199;-52
2023/02/21 14:09:12;;;;;;;11.47;2.70;;;10.20;99.90;;;;;;5047718;28;20229;-54
2023/02/21 14:11:46;;;;;;;9.73;2.53;;;10.10;99.90;;;;;;5045970;28;20213;-52
2023/02/21 14:14:27;;;;;;;6.63;1.97;;;10.10;99.90;;;;;;5045217;28;20199;-52
2023/02/21 14:17:01;;;;;;;7.07;2.03;;;10.10;99.90;;;;;;5053724;28;20837;-52
2023/02/21 14:19:35;;;;;;;9.67;2.40;;;10.10;99.90;;;;;;5037427;28;20304;-53
2023/02/21 14:22:05;;;;;;;6.53;2.53;;;10.10;99.90;;;;;;5043551;28;20489;-54
2023/02/21 14:24:37;;;;;;;9.63;2.27;;;10.10;99.90;;;;;;5046649;28;20284;-49
2023/02/21 14:27:24;;;;;;;6.60;2.37;;;10.00;99.90;;;;;;5040757;28;20203;-55
2023/02/21 14:30:23;;;;;;;5.20;2.20;;;9.90;99.90;;;;;;5051738;28;20283;-53
2023/02/21 14:32:53;;;;;;;8.70;2.30;;;9.80;99.90;;;;;;5043778;28;20223;-53
2023/02/21 14:35:29;;;;;;;5.83;2.13;;;9.90;99.90;;;;;;5045270;28;20199;-54
2023/02/21 14:38:00;;;;;;;6.93;2.00;;;9.90;99.90;;;;;;5054718;28;20178;-54
2023/02/21 14:40:35;;;;;;;7.77;2.63;;;9.80;99.90;;;;;;5044846;28;20729;-53
2023/02/21 14:43:36;;;;;;;6.17;2.70;;;9.80;99.90;;;;;;5045747;28;20691;-55
2023/02/21 14:46:19;;;;;;;5.50;2.10;;;9.80;99.90;;;;;;5052879;28;20218;-51
2023/02/21 14:49:02;;;;;;;12.50;2.87;;;9.80;99.90;;;;;;5035109;28;20208;-56
2023/02/21 14:52:02;;;;;;;5.40;1.70;;;9.70;99.90;;;;;;5048634;28;20215;-53
2023/02/21 14:54:56;;;;;;;6.97;2.17;;;9.70;99.90;;;;;;5050142;28;20222;-51
2023/02/21 14:57:53;;;;;;;6.03;2.23;;;9.80;99.90;;;;;;5038403;28;20274;-50
2023/02/21 15:00:28;;;;;;;8.27;2.70;;;9.70;99.90;;;;;;5053083;28;20218;-49
2023/02/21 15:03:07;;;;;;;9.43;2.70;;;9.70;99.90;;;;;;5054281;28;20191;-52
2023/02/21 15:05:39;;;;;;;8.57;2.27;;;9.60;99.90;;;;;;5029247;28;20211;-53
2023/02/21 15:08:14;;;;;;;9.27;2.47;;;9.60;99.90;;;;;;5050865;28;20197;-50
2023/02/21 15:10:44;;;;;;;7.00;2.33;;;9.50;99.90;;;;;;5038140;28;20242;-56
2023/02/21 15:13:23;;;;;;;6.80;2.20;;;9.50;99.90;;;;;;5048508;28;20293;-51
2023/02/21 15:15:56;;;;;;;5.03;2.40;;;9.50;99.90;;;;;;5049045;28;20214;-50
2023/02/21 15:18:27;;;;;;;7.20;2.10;;;9.40;99.90;;;;;;5045459;28;20244;-53
2023/02/21 15:21:07;;;;;;;6.13;2.60;;;9.50;99.90;;;;;;5030778;28;20627;-47
2023/02/21 15:23:34;;;;;;;7.77;1.97;;;9.50;99.90;;;;;;5051020;28;20201;-52
2023/02/21 15:26:10;;;;;;;13.77;2.40;;;9.40;99.90;;;;;;5043276;28;20199;-51
2023/02/21 15:28:38;;;;;;;6.97;1.97;;;9.50;99.90;;;;;;5042884;28;20217;-54
2023/02/21 15:31:07;;;;;;;8.90;2.17;;;9.50;99.90;;;;;;5045661;28;20230;-52
2023/02/21 15:33:37;;;;;;;4.90;1.73;;;9.50;99.90;;;;;;5045865;28;20226;-53